Roanoke Regional Airport Airport (ROA)

 

Airport Diagram
Current Weather/Forecast (VFR Conditions)
METAR KROA 241554Z 11007KT 10SM FEW015 SCT023 OVC043 19/13 A3024 RMK AO2 SLP231 T01940133
TAF KROA 241450Z 2415/2512 05005KT P6SM OVC040 FM241800 07006KT P6SM OVC060 FM250500 VRB03KT P6SM OVC028

All Charts
General
Chart Name Download
AIRPORT DIAGRAM
TAKEOFF MINIMUMS
ALTERNATE MINIMUMS
HOT SPOT

Departures
Chart Name Download
BUFIY TWO (RNAV)
DIXXY EIGHT
HOKEE THREE
MONAT TWO (RNAV)
SCUTA TWO (RNAV)

Approaches
Chart Name Download
ILS OR LOC RWY 34
RNAV (RNP) Z RWY 06
RNAV (RNP) Z RWY 24
RNAV (RNP) Z RWY 34
RNAV (GPS) Y RWY 06
RNAV (GPS) Y RWY 24
RNAV (GPS) Y RWY 34
LDA Y RWY 06
LDA Z RWY 06
VOR/DME-A


Inbound Traffic (Arrivals)

No inbound traffic.


Outbound Traffic (Departures)

No outbound traffic.